CheckWX is a tool to help pilots better visualize weather data.  It is not intended as a substitute for an official pre-flight weather briefing.

11:18:29 UTC

VDSR TAF
Siem Reap International Airport
Siem Reap, Cambodia
TAF VDSR 031700Z 0318/0412 20007KT 9999 SCT017

Apr-3@
18:00 UTC

Apr-3 @ 18:00 UTC

Apr-4@
12:00 UTC

Apr-4 @ 12:00 UTC

TAF VDSR 031700Z 0318/0412 20007KT 9999 SCT017
Wind
  • 200° at 7 KTS
Cloud Levels
  • Scattered at 1,700' AGL